Terminal Aerodrome Forecast
Issued by NWS

Home | Current Version | Previous Version | Text Only | Print | Product List | Glossary On
Versions: 1 2 3 4 5 6 7 8 9 10 11 12 13 14 15 16 17 18 19 20 21 22 23 24 25 26 27 28 29 30 31 32 33 34 35 36 37 38 39
000
FTUS43 KDTX 301853 AAA
TAFYIP
TAF AMD
KYIP 301853Z 3019/3118 09015G25KT 6SM -SHRA BR OVC008
     FM302000 06011G18KT 3SM SHRA BR OVC008
      TEMPO 3020/3024 2SM TSRA BR BKN004 OVC010CB
     FM310300 05006KT 2SM -DZ BR OVC005
     FM310800 06010KT 1/2SM RA FG OVC003
     FM311000 03004KT 1 1/2SM RA BR OVC004
     FM311500 36010KT 3SM -SHRA BR OVC010=

USA.gov is the U.S. government's official web portal to all federal, state and local government web resources and services.